< < Back
Terminal Aerodrome Forecast


Current Version              Previous Versions:   1  2  3  4  5  6  7  8  9  

Terminal Aerodrome Forecast

438
FTUS42 KFFC 191941 AAA
TAFATL
TAF AMD
KATL 191941Z 1920/2024 33005KT P6SM OVC200
     FM200200 34004KT P6SM VCSH OVC070
     FM200500 01003KT 6SM -RA BR OVC050
     FM201200 03004KT 6SM -RA BR OVC025
     FM201400 05003KT P6SM VCSH OVC028
     FM201800 09003KT P6SM BKN035=

Latest METAR

233
SAUS70 KWBC 200100 RRE
MTRATL
METAR KATL 200052Z 33007KT 10SM FEW110 BKN140 OVC200 08/01 A3013 RMK AO2
SLP208 T00830006


USA.gov is the U.S. government's official web portal to all federal, state and local government web resources and services.